Airfield :
LOGIN :

Register | Disclaimer

   EN    FR    IT 

 










Legend :    VFR   Marginal VFR   IFR   Intensive IFR   Very Intensive IFR
Visi :
Ceiling :
>= 8 km
>= 3000ft
5 to 8 km
1000 to 3000 ft
1500m to 5 km
500 to 1000 ft
800 to 1500m
200 to 500 ft
< 800m
< 200 ft
Symbols :   Thunderstorms  Fog  Heavy snow  Heavy precipitations  Wind > 20 kt
SIGMETs :     Misc.  Thunderstorms  Icing  Turbulence  Mountain Waves  Volcanic Ashes






- Airport Elevation : 10 ft
- IATA code : TTU


GMTN - Saniat R'Mel

CURRENT METAR :
  • 011800Z 27016KT 230V310 9999 FEW020 SCT040 17/08 Q1013 NOSIG

EXPIRED METARs :
  • 011700Z 27015KT 240V300 9999 FEW020 SCT040 17/09 Q1012 NOSIG
  • 011600Z 26012KT 230V300 9999 FEW020 SCT040 19/11 Q1012 NOSIG
  • 011500Z 27013KT 230V300 9999 FEW020TCU SCT050 19/11 Q1012 NOSIG

TAF N/A



MET'MAP, your aeronautical weather chart ! - Copyright ORBIFLY December 2007 - Disclaimer

ORBIFLY MET'MAP TEAM :

Programming & Development : Alexandra Zaïnal
Concept & original design : Baudouin d'Aumeries
Assistance for programming : Marc-Olivier Méhu
Technical & hardware support : Manuel Goepfert

Contact : metmap@orbifly.com




SOURCES & CREDITS :

   NOAA